sensor_id;sensor_type;location;lat;lon;timestamp;P1;P2;P0
29460;PMS7003;16428;47.836;35.106;2023-02-15T00:02:19;4.25;4.25;3.25
29460;PMS7003;16428;47.836;35.106;2023-02-15T00:04:52;3.50;3.50;3.00
29460;PMS7003;16428;47.836;35.106;2023-02-15T00:07:26;6.00;6.00;5.75
29460;PMS7003;16428;47.836;35.106;2023-02-15T00:09:57;2.50;2.50;2.25
29460;PMS7003;16428;47.836;35.106;2023-02-15T00:12:40;7.00;4.50;3.00
29460;PMS7003;16428;47.836;35.106;2023-02-15T00:15:17;6.00;6.00;5.00
29460;PMS7003;16428;47.836;35.106;2023-02-15T00:17:47;6.50;6.00;5.00
29460;PMS7003;16428;47.836;35.106;2023-02-15T00:20:21;4.00;3.50;2.25
29460;PMS7003;16428;47.836;35.106;2023-02-15T00:22:52;4.25;3.50;2.25
29460;PMS7003;16428;47.836;35.106;2023-02-15T00:25:24;6.75;4.50;3.00
29460;PMS7003;16428;47.836;35.106;2023-02-15T00:27:59;4.50;2.50;2.00
29460;PMS7003;16428;47.836;35.106;2023-02-15T00:30:29;5.50;5.50;2.50
29460;PMS7003;16428;47.836;35.106;2023-02-15T00:33:01;3.50;2.25;2.25
29460;PMS7003;16428;47.836;35.106;2023-02-15T00:35:35;5.75;2.25;2.25
29460;PMS7003;16428;47.836;35.106;2023-02-15T00:38:07;6.00;2.50;2.00
29460;PMS7003;16428;47.836;35.106;2023-02-15T00:40:44;2.50;2.50;2.50
29460;PMS7003;16428;47.836;35.106;2023-02-15T00:43:31;2.75;2.75;2.00
29460;PMS7003;16428;47.836;35.106;2023-02-15T00:46:08;1.00;1.00;1.00
29460;PMS7003;16428;47.836;35.106;2023-02-15T00:48:40;2.00;2.00;1.25
29460;PMS7003;16428;47.836;35.106;2023-02-15T00:51:12;5.25;1.00;1.00
29460;PMS7003;16428;47.836;35.106;2023-02-15T00:53:43;1.25;1.25;1.00
29460;PMS7003;16428;47.836;35.106;2023-02-15T00:56:27;2.00;2.00;1.00
29460;PMS7003;16428;47.836;35.106;2023-02-15T00:58:58;1.00;1.00;1.00
29460;PMS7003;16428;47.836;35.106;2023-02-15T01:01:27;1.00;1.00;1.00
29460;PMS7003;16428;47.836;35.106;2023-02-15T01:03:59;2.50;2.50;2.00
29460;PMS7003;16428;47.836;35.106;2023-02-15T01:06:29;1.75;1.75;1.25
29460;PMS7003;16428;47.836;35.106;2023-02-15T01:08:57;1.75;1.00;1.00
29460;PMS7003;16428;47.836;35.106;2023-02-15T01:11:29;1.00;1.00;1.00
29460;PMS7003;16428;47.836;35.106;2023-02-15T01:14:00;2.25;2.25;1.00
29460;PMS7003;16428;47.836;35.106;2023-02-15T01:16:29;3.00;3.00;3.00
29460;PMS7003;16428;47.836;35.106;2023-02-15T01:19:01;5.75;2.25;2.25
29460;PMS7003;16428;47.836;35.106;2023-02-15T01:21:31;1.50;1.50;1.50
29460;PMS7003;16428;47.836;35.106;2023-02-15T01:24:05;1.00;1.00;1.00
29460;PMS7003;16428;47.836;35.106;2023-02-15T01:26:34;0.00;0.00;0.00
29460;PMS7003;16428;47.836;35.106;2023-02-15T01:29:02;1.25;1.25;1.25
29460;PMS7003;16428;47.836;35.106;2023-02-15T01:31:31;1.00;1.00;1.00
29460;PMS7003;16428;47.836;35.106;2023-02-15T01:34:02;1.00;1.00;1.00
29460;PMS7003;16428;47.836;35.106;2023-02-15T01:36:32;2.00;2.00;1.75
29460;PMS7003;16428;47.836;35.106;2023-02-15T01:39:03;0.75;0.75;0.75
29460;PMS7003;16428;47.836;35.106;2023-02-15T01:41:34;1.25;1.25;1.00
29460;PMS7003;16428;47.836;35.106;2023-02-15T01:44:02;1.75;1.75;1.00
29460;PMS7003;16428;47.836;35.106;2023-02-15T01:46:35;1.50;1.50;0.75
29460;PMS7003;16428;47.836;35.106;2023-02-15T01:49:14;7.75;2.00;2.00
29460;PMS7003;16428;47.836;35.106;2023-02-15T01:51:44;1.00;1.00;1.00
29460;PMS7003;16428;47.836;35.106;2023-02-15T01:56:55;2.00;2.00;2.00
29460;PMS7003;16428;47.836;35.106;2023-02-15T01:59:31;1.75;1.75;1.50
29460;PMS7003;16428;47.836;35.106;2023-02-15T02:02:06;2.25;1.25;1.00
29460;PMS7003;16428;47.836;35.106;2023-02-15T02:04:58;2.00;2.00;1.75
29460;PMS7003;16428;47.836;35.106;2023-02-15T02:07:38;1.00;1.00;1.00
29460;PMS7003;16428;47.836;35.106;2023-02-15T02:10:12;3.50;1.00;1.00
29460;PMS7003;16428;47.836;35.106;2023-02-15T02:13:00;8.50;2.75;2.75
29460;PMS7003;16428;47.836;35.106;2023-02-15T02:49:39;2.00;1.00;1.00
29460;PMS7003;16428;47.836;35.106;2023-02-15T02:55:17;2.00;2.00;1.25
29460;PMS7003;16428;47.836;35.106;2023-02-15T02:58:10;1.50;1.50;1.00
29460;PMS7003;16428;47.836;35.106;2023-02-15T03:03:59;2.50;2.50;2.00
29460;PMS7003;16428;47.836;35.106;2023-02-15T03:06:53;3.00;1.25;1.00
29460;PMS7003;16428;47.836;35.106;2023-02-15T03:09:39;2.00;2.00;1.75
29460;PMS7003;16428;47.836;35.106;2023-02-15T03:12:26;2.25;2.25;2.00
29460;PMS7003;16428;47.836;35.106;2023-02-15T03:15:13;3.00;2.00;2.00
29460;PMS7003;16428;47.836;35.106;2023-02-15T03:17:52;1.00;1.00;1.00
29460;PMS7003;16428;47.836;35.106;2023-02-15T03:20:33;5.50;3.00;2.50
29460;PMS7003;16428;47.836;35.106;2023-02-15T03:23:12;6.00;3.00;3.00
29460;PMS7003;16428;47.836;35.106;2023-02-15T03:25:50;1.00;1.00;1.00
29460;PMS7003;16428;47.836;35.106;2023-02-15T03:28:39;2.75;1.00;1.00
29460;PMS7003;16428;47.836;35.106;2023-02-15T03:31:12;1.00;1.00;1.00
29460;PMS7003;16428;47.836;35.106;2023-02-15T03:41:03;3.00;1.00;1.00
29460;PMS7003;16428;47.836;35.106;2023-02-15T03:43:47;2.75;2.75;2.25
29460;PMS7003;16428;47.836;35.106;2023-02-15T03:46:49;3.00;2.25;2.00
29460;PMS7003;16428;47.836;35.106;2023-02-15T03:52:54;1.50;1.25;1.25
29460;PMS7003;16428;47.836;35.106;2023-02-15T03:55:25;3.00;2.00;2.00
29460;PMS7003;16428;47.836;35.106;2023-02-15T03:57:53;4.25;1.75;1.25
29460;PMS7003;16428;47.836;35.106;2023-02-15T04:00:43;3.00;2.75;2.50
29460;PMS7003;16428;47.836;35.106;2023-02-15T04:03:50;3.50;2.25;2.25
29460;PMS7003;16428;47.836;35.106;2023-02-15T04:06:25;4.25;2.25;1.75
29460;PMS7003;16428;47.836;35.106;2023-02-15T04:08:53;3.25;1.75;1.75
29460;PMS7003;16428;47.836;35.106;2023-02-15T04:11:46;2.00;2.00;1.25
29460;PMS7003;16428;47.836;35.106;2023-02-15T04:14:14;2.00;2.00;1.50
29460;PMS7003;16428;47.836;35.106;2023-02-15T04:17:06;2.25;2.00;2.00
29460;PMS7003;16428;47.836;35.106;2023-02-15T04:19:36;4.00;3.50;3.00
29460;PMS7003;16428;47.836;35.106;2023-02-15T04:22:25;5.00;1.00;1.00
29460;PMS7003;16428;47.836;35.106;2023-02-15T04:25:11;2.00;2.00;1.00
29460;PMS7003;16428;47.836;35.106;2023-02-15T04:27:43;1.00;1.00;1.00
29460;PMS7003;16428;47.836;35.106;2023-02-15T04:30:13;1.00;1.00;1.00
29460;PMS7003;16428;47.836;35.106;2023-02-15T04:32:45;2.00;2.00;1.25
29460;PMS7003;16428;47.836;35.106;2023-02-15T04:35:13;2.00;2.00;2.00
29460;PMS7003;16428;47.836;35.106;2023-02-15T04:37:50;2.00;2.00;1.75
29460;PMS7003;16428;47.836;35.106;2023-02-15T04:40:18;5.75;2.00;1.25
29460;PMS7003;16428;47.836;35.106;2023-02-15T04:42:49;1.75;1.50;1.00
29460;PMS7003;16428;47.836;35.106;2023-02-15T04:45:17;2.75;2.75;2.00
29460;PMS7003;16428;47.836;35.106;2023-02-15T04:47:45;3.00;3.00;2.50
29460;PMS7003;16428;47.836;35.106;2023-02-15T04:50:13;1.00;1.00;1.00
29460;PMS7003;16428;47.836;35.106;2023-02-15T04:52:42;1.75;1.75;1.50
29460;PMS7003;16428;47.836;35.106;2023-02-15T04:55:10;2.75;1.25;1.00
29460;PMS7003;16428;47.836;35.106;2023-02-15T04:57:37;3.75;3.00;2.00
29460;PMS7003;16428;47.836;35.106;2023-02-15T05:00:23;5.50;2.00;1.50
29460;PMS7003;16428;47.836;35.106;2023-02-15T05:02:51;5.00;2.00;1.00
29460;PMS7003;16428;47.836;35.106;2023-02-15T05:05:19;2.00;2.00;1.25
29460;PMS7003;16428;47.836;35.106;2023-02-15T05:07:51;7.25;4.00;2.25
29460;PMS7003;16428;47.836;35.106;2023-02-15T05:10:21;3.75;3.75;2.25
29460;PMS7003;16428;47.836;35.106;2023-02-15T05:12:49;6.50;4.00;2.75
29460;PMS7003;16428;47.836;35.106;2023-02-15T05:15:19;5.00;2.75;2.00
29460;PMS7003;16428;47.836;35.106;2023-02-15T05:17:49;2.75;2.75;2.75
29460;PMS7003;16428;47.836;35.106;2023-02-15T05:20:18;5.00;3.00;2.25
29460;PMS7003;16428;47.836;35.106;2023-02-15T05:22:48;2.00;2.00;1.50
29460;PMS7003;16428;47.836;35.106;2023-02-15T05:25:18;3.00;1.00;1.00
29460;PMS7003;16428;47.836;35.106;2023-02-15T05:28:07;4.50;1.50;1.50
29460;PMS7003;16428;47.836;35.106;2023-02-15T05:30:48;2.25;2.25;2.00
29460;PMS7003;16428;47.836;35.106;2023-02-15T05:33:30;1.25;1.25;1.00
29460;PMS7003;16428;47.836;35.106;2023-02-15T05:36:00;6.50;6.50;5.75
29460;PMS7003;16428;47.836;35.106;2023-02-15T05:38:29;14.50;14.50;12.00
29460;PMS7003;16428;47.836;35.106;2023-02-15T05:40:59;7.00;7.00;6.00
29460;PMS7003;16428;47.836;35.106;2023-02-15T05:43:28;11.25;11.25;6.50
29460;PMS7003;16428;47.836;35.106;2023-02-15T05:45:58;10.25;9.00;7.25
29460;PMS7003;16428;47.836;35.106;2023-02-15T05:48:27;8.50;6.50;5.00
29460;PMS7003;16428;47.836;35.106;2023-02-15T05:51:01;16.50;11.00;9.75
29460;PMS7003;16428;47.836;35.106;2023-02-15T05:53:32;10.75;10.75;8.50
29460;PMS7003;16428;47.836;35.106;2023-02-15T05:56:02;11.50;9.50;7.75
29460;PMS7003;16428;47.836;35.106;2023-02-15T05:58:34;16.75;12.50;10.50
29460;PMS7003;16428;47.836;35.106;2023-02-15T06:01:08;10.50;9.25;8.75
29460;PMS7003;16428;47.836;35.106;2023-02-15T06:03:42;12.00;12.00;9.00
29460;PMS7003;16428;47.836;35.106;2023-02-15T06:06:15;9.75;9.75;8.50
29460;PMS7003;16428;47.836;35.106;2023-02-15T06:08:43;12.75;11.75;10.00
29460;PMS7003;16428;47.836;35.106;2023-02-15T06:11:12;11.25;11.00;9.00
29460;PMS7003;16428;47.836;35.106;2023-02-15T06:13:52;18.75;14.50;10.75
29460;PMS7003;16428;47.836;35.106;2023-02-15T06:16:20;21.25;16.25;11.00
29460;PMS7003;16428;47.836;35.106;2023-02-15T06:18:49;11.00;11.00;9.50
29460;PMS7003;16428;47.836;35.106;2023-02-15T06:21:22;16.25;15.25;10.25
29460;PMS7003;16428;47.836;35.106;2023-02-15T06:23:50;11.75;10.00;8.50
29460;PMS7003;16428;47.836;35.106;2023-02-15T06:26:18;13.25;11.25;10.00
29460;PMS7003;16428;47.836;35.106;2023-02-15T06:28:45;11.25;10.50;8.25
29460;PMS7003;16428;47.836;35.106;2023-02-15T06:31:13;10.75;8.75;7.50
29460;PMS7003;16428;47.836;35.106;2023-02-15T06:33:42;7.25;7.25;5.25
29460;PMS7003;16428;47.836;35.106;2023-02-15T06:36:12;5.50;5.50;5.00
29460;PMS7003;16428;47.836;35.106;2023-02-15T06:38:41;7.25;4.75;4.50
29460;PMS7003;16428;47.836;35.106;2023-02-15T06:41:09;6.50;6.50;5.75
29460;PMS7003;16428;47.836;35.106;2023-02-15T06:43:38;12.25;9.50;7.50
29460;PMS7003;16428;47.836;35.106;2023-02-15T06:46:07;6.50;6.50;6.00
29460;PMS7003;16428;47.836;35.106;2023-02-15T06:48:38;6.00;6.00;5.00
29460;PMS7003;16428;47.836;35.106;2023-02-15T06:51:06;6.50;5.25;3.50
29460;PMS7003;16428;47.836;35.106;2023-02-15T06:53:35;8.25;6.75;5.50
29460;PMS7003;16428;47.836;35.106;2023-02-15T06:56:04;27.50;24.75;16.50
29460;PMS7003;16428;47.836;35.106;2023-02-15T06:58:37;16.75;11.00;10.00
29460;PMS7003;16428;47.836;35.106;2023-02-15T07:01:09;6.75;3.50;3.00
29460;PMS7003;16428;47.836;35.106;2023-02-15T07:03:38;3.25;2.75;2.00
29460;PMS7003;16428;47.836;35.106;2023-02-15T07:06:07;1.75;1.75;1.00
29460;PMS7003;16428;47.836;35.106;2023-02-15T07:08:36;2.75;2.00;2.00
29460;PMS7003;16428;47.836;35.106;2023-02-15T07:11:06;3.00;3.00;3.00
29460;PMS7003;16428;47.836;35.106;2023-02-15T07:13:53;3.00;2.00;2.00
29460;PMS7003;16428;47.836;35.106;2023-02-15T07:16:22;1.50;1.50;1.00
29460;PMS7003;16428;47.836;35.106;2023-02-15T07:18:50;3.00;3.00;2.50
29460;PMS7003;16428;47.836;35.106;2023-02-15T07:21:21;2.00;2.00;2.00
29460;PMS7003;16428;47.836;35.106;2023-02-15T07:23:49;2.00;1.75;1.50
29460;PMS7003;16428;47.836;35.106;2023-02-15T07:26:17;1.50;1.50;1.50
29460;PMS7003;16428;47.836;35.106;2023-02-15T07:28:45;10.00;3.75;2.25
29460;PMS7003;16428;47.836;35.106;2023-02-15T07:31:15;5.25;2.00;2.00
29460;PMS7003;16428;47.836;35.106;2023-02-15T07:33:44;2.00;2.00;1.75
29460;PMS7003;16428;47.836;35.106;2023-02-15T07:36:41;3.00;3.00;2.75
29460;PMS7003;16428;47.836;35.106;2023-02-15T07:39:37;5.50;2.00;2.00
29460;PMS7003;16428;47.836;35.106;2023-02-15T07:42:05;3.00;3.00;3.00
29460;PMS7003;16428;47.836;35.106;2023-02-15T07:44:35;4.00;2.25;2.00
29460;PMS7003;16428;47.836;35.106;2023-02-15T07:47:07;7.00;7.00;6.00
29460;PMS7003;16428;47.836;35.106;2023-02-15T07:49:36;3.25;2.75;1.75
29460;PMS7003;16428;47.836;35.106;2023-02-15T07:52:06;1.00;1.00;1.00
29460;PMS7003;16428;47.836;35.106;2023-02-15T07:54:35;2.00;2.00;2.00
29460;PMS7003;16428;47.836;35.106;2023-02-15T07:57:04;2.50;2.50;2.00
29460;PMS7003;16428;47.836;35.106;2023-02-15T07:59:47;7.00;4.50;3.00
29460;PMS7003;16428;47.836;35.106;2023-02-15T08:02:17;6.00;2.75;2.00
29460;PMS7003;16428;47.836;35.106;2023-02-15T08:04:46;2.00;2.00;2.00
29460;PMS7003;16428;47.836;35.106;2023-02-15T08:07:15;3.50;3.50;3.00
29460;PMS7003;16428;47.836;35.106;2023-02-15T08:09:47;2.75;2.75;2.75
29460;PMS7003;16428;47.836;35.106;2023-02-15T08:12:21;3.25;3.25;3.00
29460;PMS7003;16428;47.836;35.106;2023-02-15T08:14:49;3.00;2.75;2.50
29460;PMS7003;16428;47.836;35.106;2023-02-15T08:17:19;3.25;3.25;2.00
29460;PMS7003;16428;47.836;35.106;2023-02-15T08:19:50;3.00;3.00;2.75
29460;PMS7003;16428;47.836;35.106;2023-02-15T08:22:20;2.00;2.00;1.50
29460;PMS7003;16428;47.836;35.106;2023-02-15T08:24:48;2.25;2.25;2.25
29460;PMS7003;16428;47.836;35.106;2023-02-15T08:27:19;3.00;3.00;2.00
29460;PMS7003;16428;47.836;35.106;2023-02-15T08:29:54;7.50;2.75;1.75
29460;PMS7003;16428;47.836;35.106;2023-02-15T08:32:23;3.00;2.25;2.00
29460;PMS7003;16428;47.836;35.106;2023-02-15T08:35:19;5.25;3.75;3.00
29460;PMS7003;16428;47.836;35.106;2023-02-15T08:37:49;1.75;1.75;1.75
29460;PMS7003;16428;47.836;35.106;2023-02-15T08:40:21;3.00;3.00;2.75
29460;PMS7003;16428;47.836;35.106;2023-02-15T08:43:06;4.00;4.00;3.00
29460;PMS7003;16428;47.836;35.106;2023-02-15T08:45:43;4.50;4.25;3.00
29460;PMS7003;16428;47.836;35.106;2023-02-15T08:48:11;10.50;4.75;3.25
29460;PMS7003;16428;47.836;35.106;2023-02-15T08:50:45;3.00;3.00;3.00
29460;PMS7003;16428;47.836;35.106;2023-02-15T08:53:50;4.00;2.00;2.00
29460;PMS7003;16428;47.836;35.106;2023-02-15T08:56:35;0.25;0.25;0.00
29460;PMS7003;16428;47.836;35.106;2023-02-15T08:59:19;6.25;3.25;2.25
29460;PMS7003;16428;47.836;35.106;2023-02-15T09:01:51;3.00;3.00;2.50
29460;PMS7003;16428;47.836;35.106;2023-02-15T09:04:24;4.00;4.00;3.00
29460;PMS7003;16428;47.836;35.106;2023-02-15T09:06:52;10.50;5.25;3.00
29460;PMS7003;16428;47.836;35.106;2023-02-15T09:09:24;6.25;2.75;2.50
29460;PMS7003;16428;47.836;35.106;2023-02-15T09:11:55;3.00;3.00;2.25
29460;PMS7003;16428;47.836;35.106;2023-02-15T09:14:28;6.00;6.00;3.25
29460;PMS7003;16428;47.836;35.106;2023-02-15T09:17:09;6.75;5.75;4.75
29460;PMS7003;16428;47.836;35.106;2023-02-15T09:19:51;10.25;5.75;5.50
29460;PMS7003;16428;47.836;35.106;2023-02-15T09:22:21;9.00;7.00;6.00
29460;PMS7003;16428;47.836;35.106;2023-02-15T09:24:50;7.75;6.00;5.50
29460;PMS7003;16428;47.836;35.106;2023-02-15T09:27:42;2.25;2.25;2.25
29460;PMS7003;16428;47.836;35.106;2023-02-15T09:30:15;7.75;4.25;3.00
29460;PMS7003;16428;47.836;35.106;2023-02-15T09:32:45;7.75;2.50;2.00
29460;PMS7003;16428;47.836;35.106;2023-02-15T09:35:33;4.25;4.25;2.50
29460;PMS7003;16428;47.836;35.106;2023-02-15T09:38:15;3.25;2.25;2.25
29460;PMS7003;16428;47.836;35.106;2023-02-15T09:40:51;6.75;5.50;4.25
29460;PMS7003;16428;47.836;35.106;2023-02-15T09:43:53;3.25;3.25;3.25
29460;PMS7003;16428;47.836;35.106;2023-02-15T09:50:25;6.00;6.00;5.00
29460;PMS7003;16428;47.836;35.106;2023-02-15T10:02:24;8.00;6.25;5.50
29460;PMS7003;16428;47.836;35.106;2023-02-15T10:05:48;6.25;6.25;6.00
29460;PMS7003;16428;47.836;35.106;2023-02-15T10:25:58;8.75;6.00;5.25
29460;PMS7003;16428;47.836;35.106;2023-02-15T10:31:56;3.75;3.75;3.75
29460;PMS7003;16428;47.836;35.106;2023-02-15T10:38:15;6.50;6.50;5.25
29460;PMS7003;16428;47.836;35.106;2023-02-15T10:41:15;4.50;4.50;4.00
29460;PMS7003;16428;47.836;35.106;2023-02-15T10:46:40;4.00;2.25;2.00
29460;PMS7003;16428;47.836;35.106;2023-02-15T10:49:30;3.00;3.00;2.75
29460;PMS7003;16428;47.836;35.106;2023-02-15T10:52:46;6.00;5.75;4.00
29460;PMS7003;16428;47.836;35.106;2023-02-15T11:07:33;6.00;6.00;4.00
29460;PMS7003;16428;47.836;35.106;2023-02-15T11:13:25;5.00;4.00;3.25
29460;PMS7003;16428;47.836;35.106;2023-02-15T11:19:30;6.00;6.00;4.25
29460;PMS7003;16428;47.836;35.106;2023-02-15T11:22:12;4.00;4.00;4.00
29460;PMS7003;16428;47.836;35.106;2023-02-15T11:24:58;7.00;6.00;4.25
29460;PMS7003;16428;47.836;35.106;2023-02-15T11:27:40;5.00;5.00;4.00
29460;PMS7003;16428;47.836;35.106;2023-02-15T11:30:40;2.25;2.25;2.25
29460;PMS7003;16428;47.836;35.106;2023-02-15T11:33:35;7.00;5.00;3.00
29460;PMS7003;16428;47.836;35.106;2023-02-15T11:36:24;6.25;6.25;6.00
29460;PMS7003;16428;47.836;35.106;2023-02-15T11:39:20;7.00;7.00;6.25
29460;PMS7003;16428;47.836;35.106;2023-02-15T11:42:04;13.25;13.25;10.75
29460;PMS7003;16428;47.836;35.106;2023-02-15T11:44:59;7.25;5.75;3.50
29460;PMS7003;16428;47.836;35.106;2023-02-15T11:48:10;6.00;6.00;3.75
29460;PMS7003;16428;47.836;35.106;2023-02-15T11:51:08;7.75;6.00;3.75
29460;PMS7003;16428;47.836;35.106;2023-02-15T11:53:52;4.25;4.25;3.50
29460;PMS7003;16428;47.836;35.106;2023-02-15T11:56:30;6.00;6.00;4.25
29460;PMS7003;16428;47.836;35.106;2023-02-15T11:59:29;7.25;5.50;4.75
29460;PMS7003;16428;47.836;35.106;2023-02-15T12:02:23;2.75;2.75;2.00
29460;PMS7003;16428;47.836;35.106;2023-02-15T12:05:17;2.00;2.00;1.50
29460;PMS7003;16428;47.836;35.106;2023-02-15T12:08:19;4.25;2.00;2.00
29460;PMS7003;16428;47.836;35.106;2023-02-15T12:11:07;2.25;2.25;2.25
29460;PMS7003;16428;47.836;35.106;2023-02-15T12:13:57;13.25;6.75;6.00
29460;PMS7003;16428;47.836;35.106;2023-02-15T12:16:47;6.25;6.25;6.00
29460;PMS7003;16428;47.836;35.106;2023-02-15T12:22:05;10.00;10.00;7.00
29460;PMS7003;16428;47.836;35.106;2023-02-15T12:24:56;6.50;6.50;6.00
29460;PMS7003;16428;47.836;35.106;2023-02-15T12:27:34;7.50;7.50;7.50
29460;PMS7003;16428;47.836;35.106;2023-02-15T12:30:31;6.00;6.00;4.00
29460;PMS7003;16428;47.836;35.106;2023-02-15T12:33:35;2.75;2.25;2.00
29460;PMS7003;16428;47.836;35.106;2023-02-15T12:36:20;3.50;3.50;3.00
29460;PMS7003;16428;47.836;35.106;2023-02-15T12:42:01;4.75;4.75;3.75
29460;PMS7003;16428;47.836;35.106;2023-02-15T12:45:04;10.00;8.25;6.25
29460;PMS7003;16428;47.836;35.106;2023-02-15T12:50:42;7.25;7.25;7.00
29460;PMS7003;16428;47.836;35.106;2023-02-15T12:53:38;6.00;6.00;4.00
29460;PMS7003;16428;47.836;35.106;2023-02-15T12:56:18;6.50;3.00;3.00
29460;PMS7003;16428;47.836;35.106;2023-02-15T12:59:04;3.50;3.00;2.25
29460;PMS7003;16428;47.836;35.106;2023-02-15T13:01:51;2.50;2.50;2.00
29460;PMS7003;16428;47.836;35.106;2023-02-15T13:04:50;3.75;1.00;0.75
29460;PMS7003;16428;47.836;35.106;2023-02-15T13:07:36;4.00;4.00;2.75
29460;PMS7003;16428;47.836;35.106;2023-02-15T13:10:31;3.00;3.00;3.00
29460;PMS7003;16428;47.836;35.106;2023-02-15T13:13:33;2.00;2.00;1.00
29460;PMS7003;16428;47.836;35.106;2023-02-15T13:16:12;3.50;2.25;2.00
29460;PMS7003;16428;47.836;35.106;2023-02-15T13:18:45;2.50;2.50;2.50
29460;PMS7003;16428;47.836;35.106;2023-02-15T13:21:21;4.00;2.25;2.00
29460;PMS7003;16428;47.836;35.106;2023-02-15T13:24:23;2.50;2.50;2.00
29460;PMS7003;16428;47.836;35.106;2023-02-15T13:27:57;1.00;1.00;1.00
29460;PMS7003;16428;47.836;35.106;2023-02-15T13:30:35;2.00;2.00;1.25
29460;PMS7003;16428;47.836;35.106;2023-02-15T13:33:25;0.75;0.75;0.75
29460;PMS7003;16428;47.836;35.106;2023-02-15T13:36:11;4.75;4.75;4.50
29460;PMS7003;16428;47.836;35.106;2023-02-15T13:45:43;5.50;5.00;4.25
29460;PMS7003;16428;47.836;35.106;2023-02-15T13:48:56;3.50;3.50;2.75
29460;PMS7003;16428;47.836;35.106;2023-02-15T13:54:57;10.00;6.50;6.00
29460;PMS7003;16428;47.836;35.106;2023-02-15T14:31:09;9.00;7.25;6.00
29460;PMS7003;16428;47.836;35.106;2023-02-15T14:35:03;6.50;5.75;5.25
29460;PMS7003;16428;47.836;35.106;2023-02-15T14:40:38;6.00;6.00;5.00
29460;PMS7003;16428;47.836;35.106;2023-02-15T14:47:10;3.25;3.25;2.50
29460;PMS7003;16428;47.836;35.106;2023-02-15T14:53:44;5.75;5.75;5.75
29460;PMS7003;16428;47.836;35.106;2023-02-15T14:56:46;7.00;2.75;2.75
29460;PMS7003;16428;47.836;35.106;2023-02-15T15:00:03;4.50;1.00;0.00
29460;PMS7003;16428;47.836;35.106;2023-02-15T15:03:23;9.75;6.50;6.00
29460;PMS7003;16428;47.836;35.106;2023-02-15T15:06:00;3.00;3.00;2.50
29460;PMS7003;16428;47.836;35.106;2023-02-15T15:08:50;5.00;5.00;3.25
29460;PMS7003;16428;47.836;35.106;2023-02-15T15:21:06;7.00;7.00;6.00
29460;PMS7003;16428;47.836;35.106;2023-02-15T15:24:05;6.75;6.75;5.75
29460;PMS7003;16428;47.836;35.106;2023-02-15T15:26:42;6.50;5.75;3.50
29460;PMS7003;16428;47.836;35.106;2023-02-15T15:29:43;4.50;4.50;3.00
29460;PMS7003;16428;47.836;35.106;2023-02-15T15:36:27;2.00;2.00;2.00
29460;PMS7003;16428;47.836;35.106;2023-02-15T16:04:53;8.00;8.00;6.00
29460;PMS7003;16428;47.836;35.106;2023-02-15T16:32:26;9.00;6.00;2.50
29460;PMS7003;16428;47.836;35.106;2023-02-15T16:41:59;1.25;1.25;1.00
29460;PMS7003;16428;47.836;35.106;2023-02-15T17:17:34;2.00;2.00;1.00
29460;PMS7003;16428;47.836;35.106;2023-02-15T18:58:59;6.50;5.00;5.00
29460;PMS7003;16428;47.836;35.106;2023-02-15T19:01:55;13.75;8.00;6.00
29460;PMS7003;16428;47.836;35.106;2023-02-15T19:04:55;9.00;9.00;7.00
29460;PMS7003;16428;47.836;35.106;2023-02-15T19:07:51;8.25;7.00;4.25
29460;PMS7003;16428;47.836;35.106;2023-02-15T19:10:30;10.50;6.50;5.25
29460;PMS7003;16428;47.836;35.106;2023-02-15T19:13:20;13.75;7.25;5.75
29460;PMS7003;16428;47.836;35.106;2023-02-15T19:16:27;9.00;5.50;5.00
29460;PMS7003;16428;47.836;35.106;2023-02-15T19:19:27;6.75;5.75;5.25
29460;PMS7003;16428;47.836;35.106;2023-02-15T19:22:25;7.25;7.25;5.50
29460;PMS7003;16428;47.836;35.106;2023-02-15T19:25:05;11.00;6.25;5.00
29460;PMS7003;16428;47.836;35.106;2023-02-15T19:27:39;4.25;4.25;4.25
29460;PMS7003;16428;47.836;35.106;2023-02-15T19:30:33;1.50;1.50;1.00
29460;PMS7003;16428;47.836;35.106;2023-02-15T19:33:29;8.25;4.75;4.75
29460;PMS7003;16428;47.836;35.106;2023-02-15T19:36:26;4.75;4.75;2.50
29460;PMS7003;16428;47.836;35.106;2023-02-15T19:42:21;7.25;5.00;4.00
29460;PMS7003;16428;47.836;35.106;2023-02-15T19:45:21;5.00;5.00;4.00
29460;PMS7003;16428;47.836;35.106;2023-02-15T19:48:04;9.25;6.50;5.25
29460;PMS7003;16428;47.836;35.106;2023-02-15T19:51:00;8.00;5.00;4.25
29460;PMS7003;16428;47.836;35.106;2023-02-15T19:53:58;3.75;2.00;1.75
29460;PMS7003;16428;47.836;35.106;2023-02-15T19:56:56;7.00;7.00;5.50
29460;PMS7003;16428;47.836;35.106;2023-02-15T19:59:54;7.50;7.50;6.00
29460;PMS7003;16428;47.836;35.106;2023-02-15T20:02:51;11.50;8.00;5.25
29460;PMS7003;16428;47.836;35.106;2023-02-15T20:05:51;6.00;4.50;4.25
29460;PMS7003;16428;47.836;35.106;2023-02-15T20:08:50;6.00;6.00;4.00
29460;PMS7003;16428;47.836;35.106;2023-02-15T20:11:46;9.50;4.50;4.00
29460;PMS7003;16428;47.836;35.106;2023-02-15T20:14:43;5.00;5.00;4.25
29460;PMS7003;16428;47.836;35.106;2023-02-15T20:17:28;5.00;4.50;3.50
29460;PMS7003;16428;47.836;35.106;2023-02-15T20:20:29;6.00;6.00;4.00
29460;PMS7003;16428;47.836;35.106;2023-02-15T20:38:33;8.50;8.25;5.25
29460;PMS7003;16428;47.836;35.106;2023-02-15T20:41:56;9.75;8.75;6.50
29460;PMS7003;16428;47.836;35.106;2023-02-15T20:45:24;9.00;7.75;6.50
29460;PMS7003;16428;47.836;35.106;2023-02-15T21:14:22;5.50;4.50;4.50
29460;PMS7003;16428;47.836;35.106;2023-02-15T21:17:11;9.00;8.25;6.50
29460;PMS7003;16428;47.836;35.106;2023-02-15T21:19:45;9.00;9.00;7.50
29460;PMS7003;16428;47.836;35.106;2023-02-15T21:22:15;12.00;6.50;5.25
29460;PMS7003;16428;47.836;35.106;2023-02-15T21:24:48;4.00;4.00;4.00
29460;PMS7003;16428;47.836;35.106;2023-02-15T21:27:19;9.50;9.50;8.50
29460;PMS7003;16428;47.836;35.106;2023-02-15T21:29:48;7.00;4.75;4.50
29460;PMS7003;16428;47.836;35.106;2023-02-15T21:32:18;10.75;8.50;7.50
29460;PMS7003;16428;47.836;35.106;2023-02-15T21:34:48;8.00;8.00;6.67
29460;PMS7003;16428;47.836;35.106;2023-02-15T21:37:29;15.75;11.00;7.00
29460;PMS7003;16428;47.836;35.106;2023-02-15T21:40:02;11.00;7.50;5.50
29460;PMS7003;16428;47.836;35.106;2023-02-15T21:43:04;9.00;5.00;4.67
29460;PMS7003;16428;47.836;35.106;2023-02-15T21:46:11;6.67;5.33;5.33
29460;PMS7003;16428;47.836;35.106;2023-02-15T21:49:04;9.00;8.00;6.00
29460;PMS7003;16428;47.836;35.106;2023-02-15T21:51:39;7.67;6.67;6.00
29460;PMS7003;16428;47.836;35.106;2023-02-15T21:55:12;12.67;10.33;7.00
29460;PMS7003;16428;47.836;35.106;2023-02-15T21:58:03;8.33;8.33;6.67
29460;PMS7003;16428;47.836;35.106;2023-02-15T22:00:35;7.33;7.33;6.67
29460;PMS7003;16428;47.836;35.106;2023-02-15T22:03:17;7.00;7.00;5.33
29460;PMS7003;16428;47.836;35.106;2023-02-15T22:06:08;5.00;5.00;5.00
29460;PMS7003;16428;47.836;35.106;2023-02-15T22:08:43;5.00;5.00;4.00
29460;PMS7003;16428;47.836;35.106;2023-02-15T22:11:50;6.00;6.00;5.67
29460;PMS7003;16428;47.836;35.106;2023-02-15T22:14:36;5.00;5.00;4.00
29460;PMS7003;16428;47.836;35.106;2023-02-15T22:17:21;3.50;2.00;2.00
29460;PMS7003;16428;47.836;35.106;2023-02-15T22:19:59;8.25;5.00;4.00
29460;PMS7003;16428;47.836;35.106;2023-02-15T22:22:31;4.75;4.75;4.50
29460;PMS7003;16428;47.836;35.106;2023-02-15T22:25:22;4.75;4.75;4.75
29460;PMS7003;16428;47.836;35.106;2023-02-15T22:28:03;7.50;4.75;4.00